createdAt,value
2022-11-29T00:00:41.499Z,101317.63
2022-11-29T00:03:08.078Z,101309.59
2022-11-29T00:05:34.941Z,101315.53
2022-11-29T00:08:01.448Z,101317.66
2022-11-29T00:10:27.831Z,101325.69
2022-11-29T00:12:54.215Z,101324.00
2022-11-29T00:15:20.874Z,101324.63
2022-11-29T00:17:47.237Z,101330.53
2022-11-29T00:20:13.859Z,101331.88
2022-11-29T00:22:40.357Z,101334.84
2022-11-29T00:25:07.222Z,101332.19
2022-11-29T00:27:33.659Z,101339.97
2022-11-29T00:30:03.976Z,101335.28
2022-11-29T00:32:30.377Z,101343.00
2022-11-29T00:34:59.515Z,101339.66
2022-11-29T00:37:27.268Z,101339.13
2022-11-29T00:39:53.639Z,101334.13
2022-11-29T00:42:20.690Z,101334.13
2022-11-29T00:44:47.229Z,101342.53
2022-11-29T00:47:13.655Z,101343.09
2022-11-29T00:49:40.192Z,101341.22
2022-11-29T00:52:06.594Z,101344.97
2022-11-29T00:54:33.129Z,101347.63
2022-11-29T00:56:59.582Z,101353.31
2022-11-29T00:59:27.069Z,101345.66
2022-11-29T01:01:53.524Z,101351.66
2022-11-29T01:04:20.047Z,101351.25
2022-11-29T01:06:46.444Z,101356.16
2022-11-29T01:09:12.878Z,101358.28
2022-11-29T01:11:39.406Z,101359.13
2022-11-29T01:14:05.837Z,101355.53
2022-11-29T01:16:33.965Z,101361.38
2022-11-29T01:19:00.585Z,101355.53
2022-11-29T01:21:27.491Z,101355.53
2022-11-29T01:23:54.389Z,101360.41
2022-11-29T01:26:23.852Z,101355.13
2022-11-29T01:28:51.952Z,101360.72
2022-11-29T01:31:22.077Z,101362.78
2022-11-29T01:33:48.708Z,101355.00
2022-11-29T01:36:15.114Z,101370.06
2022-11-29T01:38:44.597Z,101365.72
2022-11-29T01:41:17.281Z,101361.03
2022-11-29T01:44:11.350Z,101370.38
2022-11-29T01:46:43.460Z,101377.47
2022-11-29T01:49:48.144Z,101372.56
2022-11-29T01:52:19.542Z,101374.56
2022-11-29T01:54:52.341Z,101372.06
2022-11-29T01:57:20.189Z,101372.06
2022-11-29T01:59:50.160Z,101378.16
2022-11-29T02:02:41.500Z,101372.06
2022-11-29T02:05:08.645Z,101369.00
2022-11-29T02:07:35.565Z,101375.84
2022-11-29T02:10:04.479Z,101377.38
2022-11-29T02:12:41.019Z,101380.31
2022-11-29T02:15:32.514Z,101377.38
2022-11-29T02:18:03.285Z,101372.63
2022-11-29T02:20:35.627Z,101387.81
2022-11-29T02:23:26.561Z,101386.00
2022-11-29T02:26:03.162Z,101389.94
2022-11-29T02:29:00.846Z,101390.91
2022-11-29T02:31:49.344Z,101389.13
2022-11-29T02:34:18.642Z,101394.66
2022-11-29T02:37:08.586Z,101398.44
2022-11-29T02:39:54.114Z,101400.38
2022-11-29T02:42:29.272Z,101406.09
2022-11-29T02:45:10.455Z,101404.00
2022-11-29T02:47:52.385Z,101403.75
2022-11-29T02:50:27.206Z,101409.69
2022-11-29T02:53:02.708Z,101415.00
2022-11-29T02:55:39.520Z,101418.34
2022-11-29T02:58:21.236Z,101431.03
2022-11-29T03:01:02.830Z,101416.81
2022-11-29T03:03:38.886Z,101429.78
2022-11-29T03:06:20.485Z,101427.66
2022-11-29T03:08:59.510Z,101434.38
2022-11-29T03:11:34.651Z,101437.28
2022-11-29T03:14:06.805Z,101440.88
2022-11-29T03:17:05.938Z,101446.19
2022-11-29T03:20:01.170Z,101448.00
2022-11-29T03:22:52.594Z,101451.66
2022-11-29T03:25:42.399Z,101449.69
2022-11-29T03:28:20.991Z,101449.41
2022-11-29T03:30:55.956Z,101444.66
2022-11-29T03:33:39.410Z,101454.28
2022-11-29T03:36:16.271Z,101456.38
2022-11-29T03:38:45.864Z,101459.59
2022-11-29T03:41:30.681Z,101465.59
2022-11-29T03:44:03.234Z,101465.97
2022-11-29T03:46:56.343Z,101463.59
2022-11-29T03:49:35.648Z,101463.19
2022-11-29T03:52:32.135Z,101472.97
2022-11-29T03:55:23.046Z,101468.75
2022-11-29T03:58:10.964Z,101470.31
2022-11-29T04:00:49.257Z,101473.63
2022-11-29T04:03:37.056Z,101470.72
2022-11-29T04:06:21.869Z,101473.38
2022-11-29T04:09:11.500Z,101481.47
2022-11-29T04:11:56.254Z,101488.84
2022-11-29T04:14:53.935Z,101492.72
2022-11-29T04:17:51.489Z,101491.47
2022-11-29T04:20:41.126Z,101481.31
2022-11-29T04:23:24.756Z,101488.41
2022-11-29T04:26:20.528Z,101488.56
2022-11-29T04:29:10.143Z,101485.47
2022-11-29T04:31:50.938Z,101491.06
2022-11-29T04:34:43.992Z,101492.16
2022-11-29T04:37:36.677Z,101487.03
2022-11-29T04:40:14.636Z,101496.06
2022-11-29T04:43:25.764Z,101494.13
2022-11-29T04:46:07.216Z,101501.13
2022-11-29T04:48:39.658Z,101499.59
2022-11-29T04:51:24.624Z,101506.81
2022-11-29T04:53:59.316Z,101511.66
2022-11-29T04:56:30.896Z,101508.06
2022-11-29T04:59:24.015Z,101519.63
2022-11-29T05:02:09.424Z,101515.72
2022-11-29T05:04:51.712Z,101522.81
2022-11-29T05:07:31.216Z,101519.78
2022-11-29T05:10:22.172Z,101530.34
2022-11-29T05:12:59.592Z,101527.97
2022-11-29T05:15:41.311Z,101537.69
2022-11-29T05:18:33.428Z,101538.13
2022-11-29T05:21:22.640Z,101538.78
2022-11-29T05:24:00.550Z,101542.28
2022-11-29T05:26:38.278Z,101540.75
2022-11-29T05:29:37.497Z,101534.19
2022-11-29T05:32:24.275Z,101548.66
2022-11-29T05:35:19.082Z,101553.94
2022-11-29T05:37:51.413Z,101553.50
2022-11-29T05:40:17.756Z,101555.00
2022-11-29T05:43:04.258Z,101555.53
2022-11-29T05:45:57.601Z,101557.75
2022-11-29T05:48:45.180Z,101556.31
2022-11-29T05:51:54.911Z,101570.69
2022-11-29T05:54:34.265Z,101574.66
2022-11-29T05:57:28.444Z,101580.38
2022-11-29T05:59:57.457Z,101571.44
2022-11-29T06:02:42.636Z,101572.44
2022-11-29T06:05:24.135Z,101586.63
2022-11-29T06:08:02.606Z,101571.94
2022-11-29T06:10:32.963Z,101583.66
2022-11-29T06:13:00.225Z,101602.59
2022-11-29T06:15:43.761Z,101600.22
2022-11-29T06:18:33.496Z,101606.22
2022-11-29T06:21:02.770Z,101611.53
2022-11-29T06:23:45.077Z,101616.09
2022-11-29T06:26:36.026Z,101615.28
2022-11-29T06:29:29.482Z,101614.94
2022-11-29T06:32:20.215Z,101619.72
2022-11-29T06:35:08.014Z,101622.50
2022-11-29T06:37:41.921Z,101624.47
2022-11-29T06:40:14.479Z,101628.94
2022-11-29T06:42:40.923Z,101636.31
2022-11-29T06:45:08.268Z,101644.81
2022-11-29T06:47:55.233Z,101638.09
2022-11-29T06:50:29.414Z,101653.25
2022-11-29T06:53:33.667Z,101657.19
2022-11-29T06:56:18.788Z,101662.03
2022-11-29T06:59:20.017Z,101663.72
2022-11-29T07:01:56.526Z,101664.25
2022-11-29T07:05:00.298Z,101663.13
2022-11-29T07:07:27.015Z,101662.53
2022-11-29T07:10:00.334Z,101651.97
2022-11-29T07:12:27.246Z,101665.72
2022-11-29T07:14:54.062Z,101664.63
2022-11-29T07:17:41.925Z,101676.44
2022-11-29T07:20:14.108Z,101678.22
2022-11-29T07:22:55.886Z,101682.13
2022-11-29T07:25:35.090Z,101686.81
2022-11-29T07:28:04.146Z,101694.16
2022-11-29T07:30:46.791Z,101694.03
2022-11-29T07:33:22.370Z,101697.75
2022-11-29T07:36:02.235Z,101700.91
2022-11-29T07:38:50.652Z,101700.66
2022-11-29T07:41:47.964Z,101700.41
2022-11-29T07:44:32.858Z,101700.53
2022-11-29T07:46:59.318Z,101703.69
2022-11-29T07:49:25.835Z,101723.16
2022-11-29T07:51:54.366Z,101727.34
2022-11-29T07:54:22.237Z,101729.59
2022-11-29T07:56:48.706Z,101732.38
2022-11-29T07:59:15.231Z,101728.34
2022-11-29T08:01:42.571Z,101726.50
2022-11-29T08:04:09.862Z,101728.34
2022-11-29T08:06:36.556Z,101735.53
2022-11-29T08:09:04.019Z,101725.59
2022-11-29T08:11:30.444Z,101735.22
2022-11-29T08:13:58.692Z,101733.06
2022-11-29T08:16:25.186Z,101738.66
2022-11-29T08:18:54.330Z,101735.91
2022-11-29T08:21:21.175Z,101743.22
2022-11-29T08:23:49.140Z,101746.84
2022-11-29T08:26:16.834Z,101743.34
2022-11-29T08:28:43.366Z,101742.75
2022-11-29T08:31:11.864Z,101756.09
2022-11-29T08:33:41.165Z,101752.34
2022-11-29T08:36:08.638Z,101757.16
2022-11-29T08:38:35.053Z,101760.75
2022-11-29T08:41:03.242Z,101766.63
2022-11-29T08:43:30.498Z,101755.44
2022-11-29T08:45:58.153Z,101764.56
2022-11-29T08:48:25.162Z,101769.13
2022-11-29T08:50:53.190Z,101778.25
2022-11-29T08:53:39.293Z,101778.13
2022-11-29T08:56:31.913Z,101774.13
2022-11-29T08:58:52.367Z,101781.31
2022-11-29T09:01:19.583Z,101778.69
2022-11-29T09:04:07.050Z,101784.31
2022-11-29T09:06:39.116Z,101778.69
2022-11-29T09:09:06.155Z,101784.41
2022-11-29T09:11:36.281Z,101786.69
2022-11-29T09:14:06.123Z,101785.47
2022-11-29T09:16:35.234Z,101793.72
2022-11-29T09:19:02.029Z,101786.50
2022-11-29T09:21:30.969Z,101800.28
2022-11-29T09:23:59.837Z,101807.88
2022-11-29T09:26:30.755Z,101803.03
2022-11-29T09:29:01.096Z,101806.69
2022-11-29T09:31:29.376Z,101812.03
2022-11-29T09:33:56.159Z,101807.34
2022-11-29T09:36:27.847Z,101807.66
2022-11-29T09:38:55.198Z,101817.03
2022-11-29T09:41:58.871Z,101816.63
2022-11-29T09:44:28.201Z,101818.69
2022-11-29T09:47:18.529Z,101826.75
2022-11-29T09:50:21.183Z,101825.09
2022-11-29T09:52:58.122Z,101821.06
2022-11-29T09:55:46.204Z,101829.44
2022-11-29T09:58:21.540Z,101829.91
2022-11-29T10:00:58.552Z,101838.72
2022-11-29T10:03:30.822Z,101840.03
2022-11-29T10:06:02.693Z,101836.31
2022-11-29T10:08:47.638Z,101840.41
2022-11-29T10:11:35.003Z,101837.91
2022-11-29T10:14:11.833Z,101837.09
2022-11-29T10:16:44.320Z,101832.09
2022-11-29T10:19:36.266Z,101840.09
2022-11-29T10:22:15.541Z,101839.00
2022-11-29T10:24:46.259Z,101830.94
2022-11-29T10:27:19.275Z,101838.88
2022-11-29T10:29:50.220Z,101840.44
2022-11-29T10:32:19.686Z,101829.88
2022-11-29T10:34:50.530Z,101832.59
2022-11-29T10:37:23.122Z,101840.28
2022-11-29T10:40:07.759Z,101837.81
2022-11-29T10:42:49.012Z,101835.41
2022-11-29T10:45:38.907Z,101839.66
2022-11-29T10:48:11.847Z,101839.94
2022-11-29T10:50:42.695Z,101839.59
2022-11-29T10:53:16.560Z,101842.06
2022-11-29T10:55:50.939Z,101833.47
2022-11-29T10:58:28.682Z,101834.28
2022-11-29T11:00:57.314Z,101836.91
2022-11-29T11:03:32.727Z,101839.31
2022-11-29T11:06:06.618Z,101840.31
2022-11-29T11:08:34.203Z,101836.91
2022-11-29T11:11:02.422Z,101840.81
2022-11-29T11:13:31.062Z,101845.53
2022-11-29T11:16:08.764Z,101841.75
2022-11-29T11:18:36.254Z,101843.66
2022-11-29T11:21:04.675Z,101844.47
2022-11-29T11:23:36.385Z,101844.41
2022-11-29T11:26:11.569Z,101847.69
2022-11-29T11:28:47.087Z,101852.91
2022-11-29T11:31:14.077Z,101854.34
2022-11-29T11:33:43.048Z,101844.44
2022-11-29T11:36:13.533Z,101855.69
2022-11-29T11:38:55.407Z,101855.53
2022-11-29T11:41:46.379Z,101857.03
2022-11-29T11:44:46.461Z,101854.03
2022-11-29T11:47:21.290Z,101853.94
2022-11-29T11:50:06.780Z,101851.75
2022-11-29T11:52:41.261Z,101864.41
2022-11-29T11:55:21.452Z,101862.97
2022-11-29T11:58:12.284Z,101855.44
2022-11-29T12:01:07.914Z,101855.63
2022-11-29T12:04:13.111Z,101846.38
2022-11-29T12:06:43.113Z,101849.91
2022-11-29T12:09:09.938Z,101860.44
2022-11-29T12:11:56.953Z,101867.88
2022-11-29T12:14:43.045Z,101859.94
2022-11-29T12:17:20.242Z,101864.72
2022-11-29T12:19:59.207Z,101874.00
2022-11-29T12:22:34.397Z,101878.13
2022-11-29T12:25:05.437Z,101869.91
2022-11-29T12:27:32.091Z,101884.97
2022-11-29T12:29:58.646Z,101873.94
2022-11-29T12:32:57.808Z,101876.97
2022-11-29T12:35:36.125Z,101883.06
2022-11-29T12:38:05.638Z,101884.78
2022-11-29T12:41:08.929Z,101879.19
2022-11-29T12:44:03.968Z,101889.78
2022-11-29T12:46:31.267Z,101883.63
2022-11-29T12:49:30.273Z,101888.38
2022-11-29T12:52:18.675Z,101879.22
2022-11-29T12:55:16.070Z,101877.34
2022-11-29T12:58:08.270Z,101858.50
2022-11-29T13:00:50.297Z,101887.28
2022-11-29T13:03:29.023Z,101893.41
2022-11-29T13:06:08.006Z,101887.44
2022-11-29T13:08:56.477Z,101889.09
2022-11-29T13:11:36.644Z,101884.31
2022-11-29T13:17:21.420Z,101880.81
2022-11-29T13:19:55.906Z,101885.69
2022-11-29T13:23:00.596Z,101869.78
2022-11-29T13:25:41.497Z,101885.69
2022-11-29T13:28:25.339Z,101883.84
2022-11-29T13:30:55.071Z,101894.19
2022-11-29T13:33:32.566Z,101881.34
2022-11-29T13:36:16.440Z,101884.41
2022-11-29T13:38:55.295Z,101882.75
2022-11-29T13:41:32.899Z,101887.91
2022-11-29T13:44:11.609Z,101884.25
2022-11-29T13:47:05.955Z,101889.41
2022-11-29T13:49:54.229Z,101899.09
2022-11-29T13:52:39.390Z,101905.94
2022-11-29T13:55:11.804Z,101904.59
2022-11-29T13:58:19.908Z,101898.97
2022-11-29T14:00:46.268Z,101895.00
2022-11-29T14:03:19.091Z,101903.06
2022-11-29T14:05:47.946Z,101899.88
2022-11-29T14:11:33.801Z,101903.44
2022-11-29T14:14:07.025Z,101899.41
2022-11-29T14:16:48.789Z,101902.50
2022-11-29T14:19:30.068Z,101912.25
2022-11-29T14:22:01.645Z,101915.56
2022-11-29T14:24:37.320Z,101908.53
2022-11-29T14:27:06.887Z,101930.00
2022-11-29T14:29:49.056Z,101912.34
2022-11-29T14:32:24.667Z,101914.91
2022-11-29T14:35:32.349Z,101918.97
2022-11-29T14:38:14.992Z,101918.97
2022-11-29T14:40:41.523Z,101917.94
2022-11-29T14:43:16.804Z,101927.78
2022-11-29T14:45:43.495Z,101922.78
2022-11-29T14:48:31.709Z,101927.94
2022-11-29T14:51:13.773Z,101922.91
2022-11-29T14:53:42.741Z,101923.03
2022-11-29T14:56:42.424Z,101919.81
2022-11-29T14:59:36.860Z,101927.09
2022-11-29T15:02:16.838Z,101924.91
2022-11-29T15:04:44.096Z,101924.19
2022-11-29T15:07:17.171Z,101930.50
2022-11-29T15:09:45.861Z,101937.97
2022-11-29T15:12:21.544Z,101937.66
2022-11-29T15:15:20.442Z,101942.13
2022-11-29T15:17:55.870Z,101942.28
2022-11-29T15:20:51.389Z,101949.59
2022-11-29T15:23:19.045Z,101951.41
2022-11-29T15:25:51.439Z,101957.03
2022-11-29T15:28:26.904Z,101948.34
2022-11-29T15:31:09.069Z,101955.22
2022-11-29T15:33:39.239Z,101948.19
2022-11-29T15:36:19.168Z,101955.06
2022-11-29T15:38:51.577Z,101963.59
2022-11-29T15:41:29.958Z,101949.28
2022-11-29T15:44:02.505Z,101957.75
2022-11-29T15:46:31.585Z,101962.78
2022-11-29T15:49:22.822Z,101960.44
2022-11-29T15:51:55.740Z,101961.00
2022-11-29T15:54:38.389Z,101944.03
2022-11-29T15:57:35.044Z,101976.34
2022-11-29T16:00:04.240Z,101970.63
2022-11-29T16:02:33.767Z,101978.47
2022-11-29T16:05:14.316Z,101979.63
2022-11-29T16:07:41.812Z,101982.00
2022-11-29T16:10:16.660Z,101977.97
2022-11-29T16:12:54.505Z,101982.16
2022-11-29T16:15:33.132Z,101987.78
2022-11-29T16:18:22.178Z,101986.53
2022-11-29T16:21:21.918Z,101985.16
2022-11-29T16:23:48.417Z,101978.59
2022-11-29T16:26:35.944Z,101975.84
2022-11-29T16:29:02.679Z,101989.44
2022-11-29T16:31:35.215Z,101989.31
2022-11-29T16:34:24.634Z,101991.84
2022-11-29T16:37:02.829Z,101961.84
2022-11-29T16:39:30.228Z,101978.19
2022-11-29T16:42:06.471Z,101977.38
2022-11-29T16:44:45.613Z,101992.63
2022-11-29T16:47:18.604Z,101992.50
2022-11-29T16:49:45.522Z,101988.31
2022-11-29T16:52:26.933Z,101985.34
2022-11-29T16:54:53.496Z,101992.78
2022-11-29T16:57:20.736Z,101994.06
2022-11-29T16:59:47.402Z,101990.84
2022-11-29T17:02:15.576Z,101986.31
2022-11-29T17:04:43.334Z,101995.66
2022-11-29T17:07:24.586Z,101996.09
2022-11-29T17:09:52.378Z,101989.78
2022-11-29T17:12:19.448Z,102000.00
2022-11-29T17:14:46.017Z,102001.28
2022-11-29T17:17:17.723Z,101998.19
2022-11-29T17:19:45.126Z,101999.72
2022-11-29T17:22:12.516Z,102001.28
2022-11-29T17:24:42.312Z,102003.78
2022-11-29T17:27:12.952Z,102019.28
2022-11-29T17:29:39.387Z,102015.06
2022-11-29T17:32:05.910Z,102023.34
2022-11-29T17:34:33.343Z,102027.81
2022-11-29T17:36:59.893Z,102026.84
2022-11-29T17:39:26.334Z,102033.84
2022-11-29T17:41:52.769Z,102033.00
2022-11-29T17:44:19.196Z,102038.31
2022-11-29T17:46:45.749Z,102030.47
2022-11-29T17:49:12.238Z,102024.59
2022-11-29T17:51:55.930Z,102035.94
2022-11-29T17:54:22.967Z,102032.00
2022-11-29T17:56:49.992Z,102036.50
2022-11-29T17:59:16.496Z,102037.31
2022-11-29T18:01:43.076Z,102019.16
2022-11-29T18:04:09.544Z,102038.31
2022-11-29T18:06:40.776Z,102039.16
2022-11-29T18:09:09.688Z,102038.31
2022-11-29T18:11:46.806Z,102045.28
2022-11-29T18:14:16.302Z,102054.53
2022-11-29T18:16:45.215Z,102053.53
2022-11-29T18:19:13.690Z,102059.69
2022-11-29T18:21:40.264Z,102057.59
2022-11-29T18:24:07.395Z,102059.13
2022-11-29T18:26:35.458Z,102058.31
2022-11-29T18:29:02.103Z,102065.44
2022-11-29T18:31:31.135Z,102065.56
2022-11-29T18:33:59.965Z,102067.53
2022-11-29T18:36:31.807Z,102068.50
2022-11-29T18:39:01.447Z,102066.13
2022-11-29T18:41:30.028Z,102067.66
2022-11-29T18:44:05.226Z,102071.88
2022-11-29T18:46:32.969Z,102070.31
2022-11-29T18:49:03.588Z,102072.41
2022-11-29T18:51:31.412Z,102069.63
2022-11-29T18:53:58.799Z,102075.22
2022-11-29T18:56:27.509Z,102074.53
2022-11-29T18:58:58.341Z,102085.16
2022-11-29T19:01:27.612Z,102091.28
2022-11-29T19:03:56.594Z,102088.91
2022-11-29T19:06:32.852Z,102084.59
2022-11-29T19:09:05.204Z,102093.13
2022-11-29T19:11:33.040Z,102087.25
2022-11-29T19:14:03.117Z,102085.16
2022-11-29T19:16:32.044Z,102096.03
2022-11-29T19:19:00.217Z,102090.84
2022-11-29T19:21:28.149Z,102095.78
2022-11-29T19:23:57.754Z,102109.06
2022-11-29T19:26:26.687Z,102098.53
2022-11-29T19:28:53.676Z,102093.13
2022-11-29T19:31:23.878Z,102085.16
2022-11-29T19:33:52.450Z,102089.63
2022-11-29T19:36:28.017Z,102090.72
2022-11-29T19:38:55.189Z,102093.22
2022-11-29T19:41:24.468Z,102099.41
2022-11-29T19:43:51.605Z,102094.22
2022-11-29T19:46:21.186Z,102098.69
2022-11-29T19:48:48.044Z,102104.72
2022-11-29T19:51:17.500Z,102103.59
2022-11-29T19:53:45.302Z,102107.09
2022-11-29T19:56:14.767Z,102113.09
2022-11-29T19:58:41.855Z,102113.38
2022-11-29T20:01:12.262Z,102114.91
2022-11-29T20:03:39.070Z,102122.88
2022-11-29T20:06:05.866Z,102119.41
2022-11-29T20:08:32.648Z,102105.25
2022-11-29T20:11:16.876Z,102103.19
2022-11-29T20:13:44.916Z,102116.47
2022-11-29T20:16:14.642Z,102119.84
2022-11-29T20:18:48.766Z,102116.34
2022-11-29T20:21:20.923Z,102115.47
2022-11-29T20:23:48.009Z,102118.28
2022-11-29T20:26:17.394Z,102117.47
2022-11-29T20:28:44.166Z,102121.94
2022-11-29T20:31:14.277Z,102118.41
2022-11-29T20:33:42.918Z,102107.63
2022-11-29T20:36:27.857Z,102126.25
2022-11-29T20:39:14.562Z,102125.69
2022-11-29T20:41:53.083Z,102130.03
2022-11-29T20:44:56.552Z,102129.75
2022-11-29T20:47:40.048Z,102136.28
2022-11-29T20:50:07.475Z,102138.94
2022-11-29T20:52:44.703Z,102136.94
2022-11-29T20:55:11.226Z,102144.09
2022-11-29T20:57:40.759Z,102142.00
2022-11-29T21:00:11.259Z,102150.13
2022-11-29T21:02:38.218Z,102137.50
2022-11-29T21:05:05.263Z,102158.19
2022-11-29T21:07:31.817Z,102154.66
2022-11-29T21:10:01.419Z,102151.00
2022-11-29T21:12:29.448Z,102141.59
2022-11-29T21:14:56.595Z,102146.19
2022-11-29T21:17:26.446Z,102143.66
2022-11-29T21:19:56.808Z,102144.34
2022-11-29T21:22:35.403Z,102146.91
2022-11-29T21:25:30.249Z,102149.91
2022-11-29T21:27:57.009Z,102150.31
2022-11-29T21:30:24.887Z,102154.19
2022-11-29T21:32:52.132Z,102143.72
2022-11-29T21:35:18.685Z,102137.25
2022-11-29T21:37:45.659Z,102132.22
2022-11-29T21:40:13.380Z,102144.84
2022-11-29T21:42:39.819Z,102151.50
2022-11-29T21:45:11.673Z,102142.56
2022-11-29T21:47:41.190Z,102150.72
2022-11-29T21:50:08.380Z,102152.81
2022-11-29T21:52:34.815Z,102162.03
2022-11-29T21:55:01.431Z,102162.88
2022-11-29T21:57:27.911Z,102155.91
2022-11-29T21:59:54.392Z,102154.91
2022-11-29T22:02:20.922Z,102159.28
2022-11-29T22:04:47.611Z,102161.78
2022-11-29T22:07:14.254Z,102159.81
2022-11-29T22:09:40.689Z,102159.81
2022-11-29T22:12:31.790Z,102154.50
2022-11-29T22:14:53.736Z,102149.47
2022-11-29T22:17:20.113Z,102152.41
2022-11-29T22:19:46.491Z,102157.44
2022-11-29T22:22:13.215Z,102149.03
2022-11-29T22:24:39.599Z,102152.09
2022-11-29T22:27:06.077Z,102147.06
2022-11-29T22:29:33.618Z,102143.09
2022-11-29T22:32:01.340Z,102158.03
2022-11-29T22:34:28.099Z,102151.44
2022-11-29T22:36:54.835Z,102154.47
2022-11-29T22:39:21.367Z,102160.19
2022-11-29T22:41:53.567Z,102160.69
2022-11-29T22:44:20.305Z,102152.03
2022-11-29T22:46:46.798Z,102155.75
2022-11-29T22:49:13.383Z,102161.31
2022-11-29T22:51:39.878Z,102167.22
2022-11-29T22:54:08.927Z,102167.28
2022-11-29T22:56:40.920Z,102165.53
2022-11-29T22:59:07.883Z,102175.06
2022-11-29T23:01:36.517Z,102172.59
2022-11-29T23:04:05.253Z,102176.53
2022-11-29T23:06:37.218Z,102183.53
2022-11-29T23:09:16.600Z,102178.63
2022-11-29T23:11:44.841Z,102190.25
2022-11-29T23:14:11.824Z,102185.81
2022-11-29T23:16:38.330Z,102184.81
2022-11-29T23:19:04.757Z,102184.28
2022-11-29T23:21:34.017Z,102183.59
2022-11-29T23:24:01.505Z,102181.41
2022-11-29T23:26:36.267Z,102178.03
2022-11-29T23:29:04.011Z,102182.63
2022-11-29T23:31:30.512Z,102188.31
2022-11-29T23:33:57.016Z,102191.44
2022-11-29T23:36:24.679Z,102179.69
2022-11-29T23:38:51.277Z,102179.56
2022-11-29T23:41:18.352Z,102182.22
2022-11-29T23:43:44.775Z,102178.75
2022-11-29T23:46:17.012Z,102188.09
2022-11-29T23:48:44.375Z,102186.56
2022-11-29T23:51:11.894Z,102188.97
2022-11-29T23:53:38.715Z,102190.75
2022-11-29T23:56:07.888Z,102185.19
2022-11-29T23:58:34.936Z,102175.69
